createdAt,value
2017-08-30T00:00:04.939Z,0
2017-08-30T00:00:45.396Z,0
2017-08-30T00:01:25.857Z,0
2017-08-30T00:02:06.305Z,0
2017-08-30T00:02:46.759Z,0
2017-08-30T00:03:27.213Z,0
2017-08-30T00:04:07.660Z,0
2017-08-30T00:04:48.105Z,0
2017-08-30T00:05:28.561Z,0
2017-08-30T00:06:09.022Z,0
2017-08-30T00:06:49.475Z,0
2017-08-30T00:07:29.929Z,0
2017-08-30T00:08:10.380Z,0
2017-08-30T00:08:50.835Z,0
2017-08-30T00:09:31.291Z,0
2017-08-30T00:10:11.744Z,0
2017-08-30T00:10:52.196Z,0
2017-08-30T00:11:32.666Z,0
2017-08-30T00:12:13.124Z,0
2017-08-30T00:12:53.572Z,0
2017-08-30T00:13:34.027Z,0
2017-08-30T00:14:14.472Z,0
2017-08-30T00:14:54.924Z,0
2017-08-30T00:15:35.382Z,0
2017-08-30T00:16:15.838Z,0
2017-08-30T00:16:56.301Z,0
2017-08-30T00:17:36.740Z,0
2017-08-30T00:18:17.197Z,0
2017-08-30T00:18:57.646Z,0
2017-08-30T00:19:38.103Z,0
2017-08-30T00:20:18.558Z,0
2017-08-30T00:20:59.008Z,0
2017-08-30T00:21:39.458Z,0
2017-08-30T00:22:19.906Z,0
2017-08-30T00:23:00.364Z,0
2017-08-30T00:23:40.815Z,0
2017-08-30T00:24:21.256Z,0
2017-08-30T00:25:01.732Z,0
2017-08-30T00:25:42.185Z,0
2017-08-30T00:26:22.638Z,0
2017-08-30T00:27:03.164Z,0
2017-08-30T00:27:43.616Z,0
2017-08-30T00:28:24.076Z,0
2017-08-30T00:29:04.527Z,0
2017-08-30T00:29:44.990Z,0
2017-08-30T00:30:25.458Z,0
2017-08-30T00:31:05.906Z,0
2017-08-30T00:31:46.362Z,0
2017-08-30T00:32:26.817Z,0
2017-08-30T00:33:07.319Z,0
2017-08-30T00:33:47.777Z,0
2017-08-30T00:34:28.230Z,0
2017-08-30T00:35:08.722Z,0
2017-08-30T00:35:49.184Z,0
2017-08-30T00:36:29.631Z,0
2017-08-30T00:37:10.201Z,0
2017-08-30T00:37:50.654Z,0
2017-08-30T00:38:31.112Z,0
2017-08-30T00:39:11.565Z,0
2017-08-30T00:39:52.024Z,0
2017-08-30T00:40:32.483Z,0
2017-08-30T00:41:12.939Z,0
2017-08-30T00:41:53.377Z,0
2017-08-30T00:42:33.839Z,0
2017-08-30T00:43:14.285Z,0
2017-08-30T00:43:54.748Z,0
2017-08-30T00:44:35.204Z,0
2017-08-30T00:45:15.660Z,0
2017-08-30T00:45:56.113Z,0
2017-08-30T00:46:36.568Z,0
2017-08-30T00:47:17.020Z,0
2017-08-30T00:47:57.478Z,0
2017-08-30T00:48:37.932Z,0
2017-08-30T00:49:18.387Z,0
2017-08-30T00:49:58.842Z,0
2017-08-30T00:50:39.295Z,0
2017-08-30T00:51:19.747Z,0
2017-08-30T00:52:00.212Z,0
2017-08-30T00:52:40.663Z,0
2017-08-30T00:53:21.177Z,0
2017-08-30T00:54:01.703Z,0
2017-08-30T00:54:42.151Z,0
2017-08-30T00:55:22.605Z,0
2017-08-30T00:56:03.064Z,0
2017-08-30T00:56:43.519Z,0
2017-08-30T00:57:23.981Z,0
2017-08-30T00:58:04.433Z,0
2017-08-30T00:58:44.892Z,0
2017-08-30T00:59:25.347Z,0
2017-08-30T01:00:05.804Z,0
2017-08-30T01:00:46.253Z,0
2017-08-30T01:01:26.709Z,0
2017-08-30T01:02:07.160Z,0
2017-08-30T01:02:47.606Z,0
2017-08-30T01:03:28.069Z,0
2017-08-30T01:04:08.511Z,0
2017-08-30T01:04:48.961Z,0
2017-08-30T01:05:29.411Z,0
2017-08-30T01:06:09.866Z,0
2017-08-30T01:06:50.322Z,0
2017-08-30T01:07:30.781Z,0
2017-08-30T01:08:11.238Z,0
2017-08-30T01:08:51.695Z,0
2017-08-30T01:09:32.147Z,0
2017-08-30T01:10:12.600Z,0
2017-08-30T01:10:53.057Z,0
2017-08-30T01:11:33.510Z,0
2017-08-30T01:12:13.962Z,0
2017-08-30T01:12:54.413Z,0
2017-08-30T01:13:34.862Z,0
2017-08-30T01:14:15.311Z,0
2017-08-30T01:14:55.774Z,0
2017-08-30T01:15:36.222Z,0
2017-08-30T01:16:16.678Z,0
2017-08-30T01:16:57.129Z,0
2017-08-30T01:17:37.580Z,0
2017-08-30T01:18:18.038Z,0
2017-08-30T01:18:58.497Z,0
2017-08-30T01:19:38.952Z,0
2017-08-30T01:20:19.417Z,0
2017-08-30T01:20:59.884Z,0
2017-08-30T01:21:40.337Z,0
2017-08-30T01:22:20.791Z,0
2017-08-30T01:23:01.247Z,0
2017-08-30T01:23:41.714Z,0
2017-08-30T01:24:22.153Z,0
2017-08-30T01:25:02.611Z,0
2017-08-30T01:25:43.060Z,0
2017-08-30T01:26:23.519Z,0
2017-08-30T01:27:03.984Z,0
2017-08-30T01:27:44.434Z,0
2017-08-30T01:28:24.885Z,0
2017-08-30T01:29:05.342Z,0
2017-08-30T01:29:45.799Z,0
2017-08-30T01:30:26.259Z,0
2017-08-30T01:31:06.724Z,0
2017-08-30T01:31:47.181Z,0
2017-08-30T01:32:27.627Z,0
2017-08-30T01:33:08.080Z,0
2017-08-30T01:33:48.534Z,0
2017-08-30T01:34:28.987Z,0
2017-08-30T01:35:09.446Z,0
2017-08-30T01:35:49.909Z,0
2017-08-30T01:36:30.368Z,0
2017-08-30T01:37:10.802Z,0
2017-08-30T01:37:51.274Z,0
2017-08-30T01:38:31.726Z,0
2017-08-30T01:39:12.178Z,0
2017-08-30T01:39:52.636Z,0
2017-08-30T01:40:33.092Z,0
2017-08-30T01:41:13.551Z,0
2017-08-30T01:41:54.014Z,0
2017-08-30T01:42:34.463Z,0
2017-08-30T01:43:14.919Z,0
2017-08-30T01:43:55.375Z,0
2017-08-30T01:44:35.834Z,0
2017-08-30T01:45:16.296Z,0
2017-08-30T01:45:56.746Z,0
2017-08-30T01:46:37.275Z,0
2017-08-30T01:47:17.726Z,0
2017-08-30T01:47:58.188Z,0
2017-08-30T01:48:38.699Z,0
2017-08-30T01:49:19.156Z,0
2017-08-30T01:49:59.606Z,0
2017-08-30T01:50:40.121Z,0
2017-08-30T01:51:20.573Z,0
2017-08-30T01:52:01.029Z,0
2017-08-30T01:52:41.491Z,0
2017-08-30T01:53:22.013Z,0
2017-08-30T01:54:02.552Z,0
2017-08-30T01:54:42.980Z,0
2017-08-30T01:55:23.526Z,0
2017-08-30T01:56:03.982Z,0
2017-08-30T01:56:44.441Z,0
2017-08-30T01:57:24.898Z,0
2017-08-30T01:58:05.350Z,0
2017-08-30T01:58:45.807Z,0
2017-08-30T01:59:26.263Z,0
2017-08-30T02:00:06.720Z,0
2017-08-30T02:00:47.177Z,0
2017-08-30T02:01:27.636Z,0
2017-08-30T02:02:08.100Z,0
2017-08-30T02:02:48.557Z,0
2017-08-30T02:03:29.014Z,0
2017-08-30T02:04:09.474Z,0
2017-08-30T02:04:49.932Z,0
2017-08-30T02:05:30.396Z,0
2017-08-30T02:06:10.860Z,0
2017-08-30T02:06:51.314Z,0
2017-08-30T02:07:31.763Z,0
2017-08-30T02:08:12.218Z,0
2017-08-30T02:08:52.678Z,0
2017-08-30T02:09:33.137Z,0
2017-08-30T02:10:13.604Z,0
2017-08-30T02:10:54.870Z,0
2017-08-30T02:11:35.317Z,0
2017-08-30T02:12:15.773Z,0
2017-08-30T02:12:56.236Z,0
2017-08-30T02:13:36.688Z,0
2017-08-30T02:14:17.145Z,0
2017-08-30T02:14:57.600Z,0
2017-08-30T02:15:38.055Z,0
2017-08-30T02:16:18.517Z,0
2017-08-30T02:16:58.978Z,0
2017-08-30T02:17:39.417Z,0
2017-08-30T02:18:19.882Z,0
2017-08-30T02:19:00.329Z,0
2017-08-30T02:19:40.790Z,0
2017-08-30T02:20:21.235Z,0
2017-08-30T02:21:01.688Z,0
2017-08-30T02:21:42.135Z,0
2017-08-30T02:22:22.595Z,0
2017-08-30T02:23:03.056Z,0
2017-08-30T02:23:43.513Z,0
2017-08-30T02:24:23.973Z,0
2017-08-30T02:25:04.429Z,0
2017-08-30T02:25:44.879Z,0
2017-08-30T02:26:25.332Z,0
2017-08-30T02:27:05.794Z,0
2017-08-30T02:27:46.248Z,0
2017-08-30T02:28:26.710Z,0
2017-08-30T02:29:07.170Z,0
2017-08-30T02:29:47.631Z,0
2017-08-30T02:30:28.083Z,0
2017-08-30T02:31:08.534Z,0
2017-08-30T02:31:48.985Z,0
2017-08-30T02:32:29.458Z,0
2017-08-30T02:33:09.896Z,0
2017-08-30T02:33:50.351Z,0
2017-08-30T02:34:30.806Z,0
2017-08-30T02:35:11.258Z,0
2017-08-30T02:35:51.701Z,0
2017-08-30T02:36:32.161Z,0
2017-08-30T02:37:12.620Z,0
2017-08-30T02:37:53.072Z,0
2017-08-30T02:38:33.526Z,0
2017-08-30T02:39:13.985Z,0
2017-08-30T02:39:54.446Z,0
2017-08-30T02:40:34.899Z,0
2017-08-30T02:41:15.346Z,0
2017-08-30T02:41:55.804Z,0
2017-08-30T02:42:36.261Z,0
2017-08-30T02:43:16.863Z,0
2017-08-30T02:43:57.337Z,0
2017-08-30T02:44:37.767Z,0
2017-08-30T02:45:18.269Z,0
2017-08-30T02:45:58.747Z,0
2017-08-30T02:46:39.197Z,0
2017-08-30T02:47:19.655Z,0
2017-08-30T02:48:00.165Z,0
2017-08-30T02:48:40.586Z,0
2017-08-30T02:49:21.047Z,0
2017-08-30T02:50:01.500Z,0
2017-08-30T02:50:41.952Z,0
2017-08-30T02:51:22.422Z,0
2017-08-30T02:52:02.867Z,0
2017-08-30T02:52:43.320Z,0
2017-08-30T02:53:23.774Z,0
2017-08-30T02:54:04.229Z,0
2017-08-30T02:54:44.693Z,0
2017-08-30T02:55:25.161Z,0
2017-08-30T02:56:05.617Z,0
2017-08-30T02:56:46.080Z,0
2017-08-30T02:57:26.530Z,0
2017-08-30T02:58:06.989Z,0
2017-08-30T02:58:47.452Z,0
2017-08-30T02:59:27.907Z,0
2017-08-30T03:00:08.360Z,0
2017-08-30T03:00:48.817Z,0
2017-08-30T03:01:29.270Z,0
2017-08-30T03:02:09.728Z,0
2017-08-30T03:02:50.175Z,0
2017-08-30T03:03:30.627Z,0
2017-08-30T03:04:11.080Z,0
2017-08-30T03:04:51.549Z,0
2017-08-30T03:05:32.007Z,0
2017-08-30T03:06:12.466Z,0
2017-08-30T03:06:52.908Z,0
2017-08-30T03:07:33.347Z,0
2017-08-30T03:08:13.785Z,0
2017-08-30T03:08:54.240Z,0
2017-08-30T03:09:34.695Z,0
2017-08-30T03:10:15.157Z,0
2017-08-30T03:10:55.615Z,0
2017-08-30T03:11:36.066Z,0
2017-08-30T03:12:16.525Z,0
2017-08-30T03:12:56.982Z,0
2017-08-30T03:13:37.437Z,0
2017-08-30T03:14:17.898Z,0
2017-08-30T03:14:58.355Z,0
2017-08-30T03:15:38.810Z,0
2017-08-30T03:16:19.280Z,0
2017-08-30T03:16:59.740Z,0
2017-08-30T03:17:40.192Z,0
2017-08-30T03:18:20.641Z,0
2017-08-30T03:19:01.148Z,0
2017-08-30T03:19:41.592Z,0
2017-08-30T03:20:22.043Z,0
2017-08-30T03:21:02.503Z,0
2017-08-30T03:21:42.965Z,0
2017-08-30T03:24:01.046Z,0
2017-08-30T03:24:41.518Z,0
2017-08-30T03:25:21.952Z,0
2017-08-30T03:26:02.412Z,0
2017-08-30T03:26:42.854Z,0
2017-08-30T03:27:23.305Z,0
2017-08-30T03:28:03.759Z,0
2017-08-30T03:28:44.219Z,0
2017-08-30T03:29:24.680Z,0
2017-08-30T03:30:05.138Z,0
2017-08-30T03:30:45.593Z,0
2017-08-30T03:31:26.054Z,0
2017-08-30T03:32:06.491Z,0
2017-08-30T03:32:46.952Z,0
2017-08-30T03:33:27.404Z,0
2017-08-30T03:34:07.862Z,0
2017-08-30T03:34:48.316Z,0
2017-08-30T03:35:28.770Z,0
2017-08-30T03:36:09.229Z,0
2017-08-30T03:36:49.679Z,0
2017-08-30T03:37:30.139Z,0
2017-08-30T03:38:10.595Z,0
2017-08-30T03:38:51.055Z,0
2017-08-30T03:39:31.510Z,0
2017-08-30T03:40:11.968Z,0
2017-08-30T03:40:52.424Z,0
2017-08-30T03:41:32.883Z,0
2017-08-30T03:42:13.329Z,0
2017-08-30T03:42:53.786Z,0
2017-08-30T03:43:34.250Z,0
2017-08-30T03:44:14.715Z,0
2017-08-30T03:44:55.175Z,0
2017-08-30T03:45:35.612Z,0
2017-08-30T03:46:16.158Z,0
2017-08-30T03:46:56.617Z,0
2017-08-30T03:47:37.076Z,0
2017-08-30T03:48:17.531Z,0
2017-08-30T03:48:57.988Z,0
2017-08-30T03:49:38.460Z,0
2017-08-30T03:50:18.909Z,0
2017-08-30T03:50:59.371Z,0
2017-08-30T03:51:39.821Z,0
2017-08-30T03:52:20.286Z,0
2017-08-30T03:53:00.736Z,0
2017-08-30T03:53:41.278Z,0
2017-08-30T03:54:21.730Z,0
2017-08-30T03:55:02.195Z,0
2017-08-30T03:55:42.641Z,0
2017-08-30T03:56:23.110Z,0
2017-08-30T03:57:03.569Z,0
2017-08-30T03:57:44.010Z,0
2017-08-30T03:58:24.567Z,0
2017-08-30T04:00:42.450Z,0
2017-08-30T04:01:22.902Z,0
2017-08-30T04:02:03.359Z,0
2017-08-30T04:02:43.827Z,0
2017-08-30T04:03:24.277Z,0
2017-08-30T04:04:04.729Z,0
2017-08-30T04:04:45.171Z,0
2017-08-30T04:05:25.639Z,0
2017-08-30T04:06:06.090Z,0
2017-08-30T04:06:46.543Z,0
2017-08-30T04:07:26.994Z,0
2017-08-30T04:08:07.436Z,0
2017-08-30T04:08:47.903Z,0
2017-08-30T04:09:28.403Z,0
2017-08-30T04:10:08.837Z,0
2017-08-30T04:10:49.301Z,0
2017-08-30T04:11:29.757Z,0
2017-08-30T04:12:10.205Z,4
2017-08-30T04:12:50.656Z,0
2017-08-30T04:13:31.117Z,0
2017-08-30T04:14:11.546Z,4
2017-08-30T04:14:51.999Z,0
2017-08-30T04:15:32.451Z,4
2017-08-30T04:16:12.929Z,0
2017-08-30T04:16:53.386Z,4
2017-08-30T04:17:33.848Z,4
2017-08-30T04:18:14.295Z,4
2017-08-30T04:18:54.734Z,4
2017-08-30T04:19:35.183Z,4
2017-08-30T04:20:15.696Z,4
2017-08-30T04:20:56.126Z,4
2017-08-30T04:21:36.582Z,8
2017-08-30T04:22:17.173Z,4
2017-08-30T04:22:57.625Z,8
2017-08-30T04:23:38.069Z,8
2017-08-30T04:24:18.516Z,8
2017-08-30T04:24:58.979Z,12
2017-08-30T04:25:39.416Z,8
2017-08-30T04:26:19.858Z,12
2017-08-30T04:27:00.313Z,8
2017-08-30T04:29:13.141Z,16
2017-08-30T04:29:53.596Z,16
2017-08-30T04:30:34.051Z,16
2017-08-30T04:31:14.507Z,20
2017-08-30T04:31:54.949Z,16
2017-08-30T04:32:35.398Z,20
2017-08-30T04:33:15.849Z,20
2017-08-30T04:33:56.294Z,20
2017-08-30T04:34:36.748Z,24
2017-08-30T04:35:17.187Z,24
2017-08-30T04:35:57.635Z,24
2017-08-30T04:36:38.085Z,28
2017-08-30T04:37:18.531Z,28
2017-08-30T04:37:58.999Z,32
2017-08-30T04:38:39.442Z,32
2017-08-30T04:39:19.911Z,32
2017-08-30T04:40:00.375Z,36
2017-08-30T04:40:40.809Z,36
2017-08-30T04:41:21.260Z,40
2017-08-30T04:42:01.705Z,40
2017-08-30T04:42:42.161Z,44
2017-08-30T04:43:22.606Z,48
2017-08-30T04:44:03.058Z,52
2017-08-30T04:44:43.527Z,52
2017-08-30T04:45:23.985Z,56
2017-08-30T04:46:04.437Z,60
2017-08-30T04:46:44.890Z,64
2017-08-30T04:47:25.343Z,64
2017-08-30T04:48:05.821Z,72
2017-08-30T04:48:46.304Z,76
2017-08-30T04:49:26.718Z,76
2017-08-30T04:50:07.174Z,80
2017-08-30T04:50:47.636Z,84
2017-08-30T04:51:28.080Z,88
2017-08-30T04:52:08.517Z,92
2017-08-30T04:52:48.977Z,96
2017-08-30T04:53:29.432Z,96
2017-08-30T04:54:09.892Z,104
2017-08-30T04:54:50.343Z,108
2017-08-30T04:55:30.783Z,112
2017-08-30T04:56:11.230Z,112
2017-08-30T04:56:51.682Z,120
2017-08-30T04:57:32.128Z,124
2017-08-30T04:58:12.576Z,128
2017-08-30T04:58:53.028Z,128
2017-08-30T04:59:33.478Z,132
2017-08-30T05:00:13.925Z,136
2017-08-30T05:00:54.374Z,144
2017-08-30T05:01:34.832Z,148
2017-08-30T05:02:15.274Z,148
2017-08-30T05:02:55.726Z,152
2017-08-30T05:03:36.188Z,156
2017-08-30T05:04:16.646Z,164
2017-08-30T05:04:57.108Z,168
2017-08-30T05:05:37.575Z,172
2017-08-30T05:06:18.029Z,176
2017-08-30T05:06:58.479Z,180
2017-08-30T05:07:38.942Z,180
2017-08-30T05:08:19.407Z,188
2017-08-30T05:08:59.848Z,192
2017-08-30T05:09:40.297Z,196
2017-08-30T05:10:20.746Z,196
2017-08-30T05:11:01.308Z,204
2017-08-30T05:11:41.681Z,208
2017-08-30T05:12:22.137Z,212
2017-08-30T05:13:02.580Z,212
2017-08-30T05:13:43.030Z,220
2017-08-30T05:14:23.490Z,220
2017-08-30T05:15:03.942Z,224
2017-08-30T05:15:44.395Z,228
2017-08-30T05:16:24.856Z,228
2017-08-30T05:17:05.291Z,236
2017-08-30T05:17:45.753Z,240
2017-08-30T05:18:26.203Z,244
2017-08-30T05:19:06.648Z,244
2017-08-30T05:19:47.100Z,248
2017-08-30T05:20:27.548Z,252
2017-08-30T05:21:08.005Z,256
2017-08-30T05:21:48.473Z,256
2017-08-30T05:22:28.925Z,260
2017-08-30T05:23:09.475Z,264
2017-08-30T05:23:49.932Z,264
2017-08-30T05:24:30.377Z,268
2017-08-30T05:25:10.896Z,276
2017-08-30T05:25:51.360Z,276
2017-08-30T05:26:31.830Z,280
2017-08-30T05:27:12.267Z,284
2017-08-30T05:27:52.721Z,288
2017-08-30T05:28:33.164Z,292
2017-08-30T05:29:13.613Z,296
2017-08-30T05:29:54.074Z,300
2017-08-30T05:30:34.530Z,300
2017-08-30T05:31:14.969Z,308
2017-08-30T05:31:55.428Z,308
2017-08-30T05:32:35.879Z,316
2017-08-30T05:33:16.322Z,316
2017-08-30T05:33:56.753Z,320
2017-08-30T05:34:37.218Z,324
2017-08-30T05:35:17.652Z,328
2017-08-30T05:35:58.121Z,332
2017-08-30T05:36:38.585Z,336
2017-08-30T05:37:19.031Z,340
2017-08-30T05:37:59.491Z,344
2017-08-30T05:38:39.947Z,352
2017-08-30T05:39:20.394Z,356
2017-08-30T05:40:00.851Z,360
2017-08-30T05:40:41.306Z,364
2017-08-30T05:41:21.770Z,372
2017-08-30T05:42:02.332Z,376
2017-08-30T05:42:42.785Z,380
2017-08-30T05:43:23.230Z,388
2017-08-30T05:44:03.683Z,392
2017-08-30T05:44:44.133Z,400
2017-08-30T05:45:24.578Z,404
2017-08-30T05:46:05.040Z,416
2017-08-30T05:46:45.496Z,420
2017-08-30T05:47:25.944Z,428
2017-08-30T05:48:06.385Z,436
2017-08-30T05:48:46.848Z,440
2017-08-30T05:49:27.305Z,448
2017-08-30T05:50:07.768Z,452
2017-08-30T05:50:48.227Z,460
2017-08-30T05:51:28.689Z,468
2017-08-30T05:52:09.144Z,472
2017-08-30T05:52:49.610Z,480
2017-08-30T05:53:30.062Z,488
2017-08-30T05:54:10.503Z,496
2017-08-30T05:54:50.949Z,500
2017-08-30T05:55:31.401Z,508
2017-08-30T05:56:11.836Z,516
2017-08-30T05:56:52.289Z,520
2017-08-30T05:57:32.743Z,524
2017-08-30T05:58:13.192Z,528
2017-08-30T05:58:53.651Z,536
2017-08-30T05:59:34.110Z,540
2017-08-30T06:00:14.538Z,532
2017-08-30T06:00:54.985Z,540
2017-08-30T06:01:35.427Z,544
2017-08-30T06:02:15.882Z,552
2017-08-30T06:02:56.314Z,576
2017-08-30T06:03:36.778Z,584
2017-08-30T06:04:17.229Z,588
2017-08-30T06:04:57.677Z,592
2017-08-30T06:05:38.119Z,596
2017-08-30T06:06:18.574Z,600
2017-08-30T06:06:59.025Z,612
2017-08-30T06:07:39.485Z,620
2017-08-30T06:08:19.937Z,632
2017-08-30T06:09:00.393Z,640
2017-08-30T06:09:40.845Z,652
2017-08-30T06:10:21.297Z,664
2017-08-30T06:11:01.777Z,672
2017-08-30T06:11:42.215Z,656
2017-08-30T06:12:22.716Z,664
2017-08-30T06:13:03.173Z,668
2017-08-30T06:13:43.633Z,660
2017-08-30T06:14:24.090Z,672
2017-08-30T06:15:04.538Z,660
2017-08-30T06:15:45.001Z,684
2017-08-30T06:16:25.460Z,696
2017-08-30T06:17:05.911Z,748
2017-08-30T06:17:46.377Z,768
2017-08-30T06:18:26.894Z,772
2017-08-30T06:19:07.350Z,784
2017-08-30T06:19:47.807Z,780
2017-08-30T06:20:28.261Z,784
2017-08-30T06:21:08.711Z,772
2017-08-30T06:21:49.160Z,760
2017-08-30T06:22:29.611Z,720
2017-08-30T06:23:10.111Z,664
2017-08-30T06:23:50.590Z,696
2017-08-30T06:24:31.049Z,736
2017-08-30T06:25:11.504Z,736
2017-08-30T06:25:51.965Z,768
2017-08-30T06:26:32.424Z,780
2017-08-30T06:27:12.877Z,808
2017-08-30T06:27:53.331Z,780
2017-08-30T06:28:33.806Z,712
2017-08-30T06:29:14.245Z,696
2017-08-30T06:29:54.704Z,700
2017-08-30T06:30:35.159Z,712
2017-08-30T06:31:15.624Z,744
2017-08-30T06:31:56.077Z,824
2017-08-30T06:32:36.538Z,868
2017-08-30T06:33:16.984Z,844
2017-08-30T06:33:57.435Z,836
2017-08-30T06:34:37.885Z,828
2017-08-30T06:35:18.333Z,808
2017-08-30T06:35:58.809Z,828
2017-08-30T06:36:39.269Z,868
2017-08-30T06:37:19.724Z,884
2017-08-30T06:38:00.178Z,872
2017-08-30T06:38:40.743Z,820
2017-08-30T06:39:21.196Z,832
2017-08-30T06:40:01.650Z,824
2017-08-30T06:40:42.095Z,840
2017-08-30T06:41:22.557Z,812
2017-08-30T06:42:03.123Z,748
2017-08-30T06:42:43.580Z,772
2017-08-30T06:43:24.034Z,812
2017-08-30T06:44:04.495Z,812
2017-08-30T06:44:44.948Z,888
2017-08-30T06:45:25.400Z,972
2017-08-30T06:46:05.856Z,1020
2017-08-30T06:46:46.306Z,1060
2017-08-30T06:47:26.754Z,1136
2017-08-30T06:48:07.209Z,1176
2017-08-30T06:48:47.663Z,1196
2017-08-30T06:49:28.121Z,1188
2017-08-30T06:50:08.578Z,1184
2017-08-30T06:50:49.032Z,1228
2017-08-30T06:51:29.495Z,1212
2017-08-30T06:52:09.947Z,1244
2017-08-30T06:52:50.422Z,1300
2017-08-30T06:53:30.848Z,1308
2017-08-30T06:54:11.305Z,1328
2017-08-30T06:54:51.760Z,1348
2017-08-30T06:55:32.203Z,1360
2017-08-30T06:56:12.671Z,1352
2017-08-30T06:56:53.128Z,1384
2017-08-30T06:57:33.582Z,1420
2017-08-30T06:58:14.040Z,1420
2017-08-30T06:58:54.491Z,1420
2017-08-30T06:59:34.953Z,1232
2017-08-30T07:00:15.400Z,1428
2017-08-30T07:00:55.859Z,1424
2017-08-30T07:01:36.330Z,1468
2017-08-30T07:02:16.877Z,1404
2017-08-30T07:02:57.335Z,1400
2017-08-30T07:03:37.792Z,1444
2017-08-30T07:04:18.307Z,1432
2017-08-30T07:04:58.760Z,1388
2017-08-30T07:05:39.214Z,1376
2017-08-30T07:06:19.672Z,1460
2017-08-30T07:07:00.125Z,1524
2017-08-30T07:07:40.580Z,1504
2017-08-30T07:08:21.031Z,1536
2017-08-30T07:09:01.574Z,1568
2017-08-30T07:09:41.935Z,1580
2017-08-30T07:10:22.384Z,1588
2017-08-30T07:11:02.841Z,1588
2017-08-30T07:11:43.294Z,1552
2017-08-30T07:12:23.748Z,1592
2017-08-30T07:13:04.202Z,1584
2017-08-30T07:13:44.661Z,1628
2017-08-30T07:14:25.111Z,1660
2017-08-30T07:15:05.570Z,1712
2017-08-30T07:15:46.020Z,1732
2017-08-30T07:16:26.474Z,1680
2017-08-30T07:17:06.935Z,1656
2017-08-30T07:19:19.723Z,1716
2017-08-30T07:20:00.178Z,1724
2017-08-30T07:20:40.623Z,1696
2017-08-30T07:21:21.078Z,1740
2017-08-30T07:22:01.541Z,1812
2017-08-30T07:22:41.981Z,1808
2017-08-30T07:23:22.444Z,1812
2017-08-30T07:24:02.886Z,1784
2017-08-30T07:24:43.348Z,1756
2017-08-30T07:25:23.808Z,1752
2017-08-30T07:26:04.254Z,1708
2017-08-30T07:26:44.715Z,1740
2017-08-30T07:27:25.164Z,1792
2017-08-30T07:28:05.621Z,1780
2017-08-30T07:28:46.067Z,1848
2017-08-30T07:29:26.526Z,1824
2017-08-30T07:30:06.981Z,1792
2017-08-30T07:30:47.431Z,1664
2017-08-30T07:31:27.874Z,1700
2017-08-30T07:32:08.329Z,1692
2017-08-30T07:32:48.782Z,1500
2017-08-30T07:33:29.239Z,1712
2017-08-30T07:34:09.692Z,1788
2017-08-30T07:34:50.147Z,1760
2017-08-30T07:35:30.602Z,1680
2017-08-30T07:36:11.058Z,1712
2017-08-30T07:36:51.495Z,1832
2017-08-30T07:37:31.950Z,1788
2017-08-30T07:38:12.415Z,1872
2017-08-30T07:38:52.860Z,1932
2017-08-30T07:39:33.316Z,1940
2017-08-30T07:40:13.783Z,1788
2017-08-30T07:40:54.224Z,1804
2017-08-30T07:41:34.679Z,1644
2017-08-30T07:42:15.136Z,1612
2017-08-30T07:42:55.599Z,1696
2017-08-30T07:43:36.056Z,1884
2017-08-30T07:44:16.515Z,2056
2017-08-30T07:44:56.965Z,2052
2017-08-30T07:45:37.421Z,2188
2017-08-30T07:46:17.879Z,2116
2017-08-30T07:46:58.336Z,2024
2017-08-30T07:47:38.801Z,1968
2017-08-30T07:48:19.252Z,1772
2017-08-30T07:48:59.707Z,1656
2017-08-30T07:49:40.177Z,1712
2017-08-30T07:50:20.634Z,1788
2017-08-30T07:51:01.077Z,1808
2017-08-30T07:51:41.533Z,1832
2017-08-30T07:52:21.984Z,1860
2017-08-30T07:53:02.444Z,1860
2017-08-30T07:53:42.897Z,1840
2017-08-30T07:56:10.841Z,1940
2017-08-30T07:56:51.299Z,2084
2017-08-30T07:57:31.752Z,2280
2017-08-30T07:58:12.209Z,2296
2017-08-30T07:58:52.657Z,2344
2017-08-30T07:59:33.114Z,2328
2017-08-30T08:00:13.566Z,2308
2017-08-30T08:00:54.016Z,2316
2017-08-30T08:01:34.487Z,2344
2017-08-30T08:02:14.935Z,2260
2017-08-30T08:02:55.396Z,2184
2017-08-30T08:03:35.843Z,2096
2017-08-30T08:04:16.324Z,1984
2017-08-30T08:04:56.741Z,2008
2017-08-30T08:05:37.216Z,2092
2017-08-30T08:06:17.674Z,2132
2017-08-30T08:06:58.120Z,2048
2017-08-30T08:07:38.573Z,1992
2017-08-30T08:08:19.023Z,1932
2017-08-30T08:08:59.477Z,1920
2017-08-30T08:09:39.930Z,1892
2017-08-30T08:10:20.384Z,1904
2017-08-30T08:11:00.841Z,2124
2017-08-30T08:11:41.302Z,2176
2017-08-30T08:12:23.595Z,2136
2017-08-30T08:13:04.045Z,2032
2017-08-30T08:13:44.486Z,1920
2017-08-30T08:14:24.953Z,1736
2017-08-30T08:15:05.376Z,1584
2017-08-30T08:15:45.805Z,1488
2017-08-30T08:16:26.253Z,1420
2017-08-30T08:17:06.711Z,1512
2017-08-30T08:17:47.156Z,1484
2017-08-30T08:18:27.612Z,1300
2017-08-30T08:19:08.078Z,1236
2017-08-30T08:19:48.562Z,1316
2017-08-30T08:20:29.023Z,1484
2017-08-30T08:21:09.469Z,1476
2017-08-30T08:21:49.923Z,1640
2017-08-30T08:22:30.379Z,1668
2017-08-30T08:23:10.836Z,1572
2017-08-30T08:23:51.289Z,1580
2017-08-30T08:24:31.742Z,1680
2017-08-30T08:25:12.207Z,1756
2017-08-30T08:25:52.652Z,1840
2017-08-30T08:26:33.113Z,1876
2017-08-30T08:27:13.567Z,1568
2017-08-30T08:27:54.023Z,1936
2017-08-30T08:28:34.488Z,1872
2017-08-30T08:29:14.943Z,2132
2017-08-30T08:29:55.394Z,2316
2017-08-30T08:30:35.847Z,2480
2017-08-30T08:31:16.304Z,2568
2017-08-30T08:31:56.754Z,2720
2017-08-30T08:32:37.208Z,2896
2017-08-30T08:33:17.729Z,2944
2017-08-30T08:33:58.182Z,3004
2017-08-30T08:34:38.632Z,3108
2017-08-30T08:35:19.112Z,3164
2017-08-30T08:35:59.544Z,3084
2017-08-30T08:36:39.989Z,3504
2017-08-30T08:37:20.436Z,3552
2017-08-30T08:38:00.885Z,3536
2017-08-30T08:38:41.327Z,3528
2017-08-30T08:39:21.780Z,3552
2017-08-30T08:40:02.246Z,3608
2017-08-30T08:40:42.699Z,3592
2017-08-30T08:41:23.154Z,3572
2017-08-30T08:42:03.636Z,3584
2017-08-30T08:42:44.059Z,3616
2017-08-30T08:43:24.520Z,3620
2017-08-30T08:44:04.975Z,3568
2017-08-30T08:44:45.433Z,3540
2017-08-30T08:45:25.901Z,3532
2017-08-30T08:46:06.353Z,3448
2017-08-30T08:46:46.814Z,3428
2017-08-30T08:47:27.251Z,3484
2017-08-30T08:48:07.705Z,3524
2017-08-30T08:50:26.327Z,3748
2017-08-30T08:51:06.954Z,3816
2017-08-30T08:51:47.643Z,3752
2017-08-30T08:52:28.697Z,3260
2017-08-30T08:53:09.172Z,3292
2017-08-30T08:53:49.632Z,3452
2017-08-30T08:54:30.072Z,3288
2017-08-30T08:55:10.565Z,3368
2017-08-30T08:55:51.020Z,3452
2017-08-30T08:56:31.473Z,3572
2017-08-30T08:57:11.918Z,3508
2017-08-30T08:57:52.962Z,3660
2017-08-30T08:58:33.358Z,3720
2017-08-30T08:59:13.839Z,3716
2017-08-30T08:59:54.279Z,3848
2017-08-30T09:00:35.056Z,3940
2017-08-30T09:01:15.510Z,3964
2017-08-30T09:01:56.065Z,3984
2017-08-30T09:03:53.801Z,4100
2017-08-30T09:04:34.228Z,4064
2017-08-30T09:05:14.695Z,4088
2017-08-30T09:05:55.141Z,4124
2017-08-30T09:06:35.595Z,3996
2017-08-30T09:07:16.038Z,4096
2017-08-30T09:07:56.509Z,4028
2017-08-30T09:08:36.975Z,4012
2017-08-30T09:09:17.472Z,3980
2017-08-30T09:09:57.956Z,4120
2017-08-30T09:10:38.409Z,4060
2017-08-30T09:11:18.847Z,4128
2017-08-30T09:11:59.291Z,4128
2017-08-30T09:12:39.996Z,4128
2017-08-30T09:13:20.438Z,4116
2017-08-30T09:14:00.887Z,4116
2017-08-30T09:14:41.334Z,4112
2017-08-30T09:15:21.783Z,4116
2017-08-30T09:16:02.248Z,4116
2017-08-30T09:16:42.703Z,4116
2017-08-30T09:17:23.178Z,4112
2017-08-30T09:18:03.639Z,4152
2017-08-30T09:18:44.065Z,4184
2017-08-30T09:19:24.526Z,4188
2017-08-30T09:20:04.972Z,4200
2017-08-30T09:20:45.427Z,4208
2017-08-30T09:21:25.942Z,4208
2017-08-30T09:22:06.418Z,4212
2017-08-30T09:22:46.828Z,4204
2017-08-30T09:23:27.274Z,4220
2017-08-30T09:24:07.880Z,4224
2017-08-30T09:26:05.535Z,4260
2017-08-30T09:26:45.994Z,4280
2017-08-30T09:27:26.448Z,4296
2017-08-30T09:28:06.907Z,4284
2017-08-30T09:28:47.371Z,4328
2017-08-30T09:29:27.841Z,4372
2017-08-30T09:30:08.289Z,4372
2017-08-30T09:30:48.763Z,4444
2017-08-30T09:31:29.218Z,4436
2017-08-30T09:32:09.667Z,4444
2017-08-30T09:32:50.108Z,4492
2017-08-30T09:33:30.538Z,4448
2017-08-30T09:34:10.962Z,4352
2017-08-30T09:34:51.421Z,4108
2017-08-30T09:35:31.883Z,3432
2017-08-30T09:36:12.323Z,4024
2017-08-30T09:36:52.807Z,3564
2017-08-30T09:37:33.249Z,3268
2017-08-30T09:38:13.698Z,3108
2017-08-30T09:38:54.142Z,3112
2017-08-30T09:39:34.684Z,3204
2017-08-30T09:40:15.040Z,3460
2017-08-30T09:40:55.492Z,3576
2017-08-30T09:41:36.337Z,3988
2017-08-30T09:42:16.802Z,3888